sensor_id;sensor_type;location;lat;lon;timestamp;temperature;humidity
76567;DHT22;65428;53.194;6.132;2023-08-20T00:00:28;14.70;99.90
76567;DHT22;65428;53.194;6.132;2023-08-20T00:02:59;14.70;99.90
76567;DHT22;65428;53.194;6.132;2023-08-20T00:05:28;14.70;99.90
76567;DHT22;65428;53.194;6.132;2023-08-20T00:07:54;14.70;99.90
76567;DHT22;65428;53.194;6.132;2023-08-20T00:10:20;14.70;99.90
76567;DHT22;65428;53.194;6.132;2023-08-20T00:12:45;14.80;99.90
76567;DHT22;65428;53.194;6.132;2023-08-20T00:15:11;14.50;99.90
76567;DHT22;65428;53.194;6.132;2023-08-20T00:17:39;14.40;99.90
76567;DHT22;65428;53.194;6.132;2023-08-20T00:20:06;14.40;99.90
76567;DHT22;65428;53.194;6.132;2023-08-20T00:22:42;14.20;99.90
76567;DHT22;65428;53.194;6.132;2023-08-20T00:25:14;14.40;99.90
76567;DHT22;65428;53.194;6.132;2023-08-20T00:27:40;14.40;99.90
76567;DHT22;65428;53.194;6.132;2023-08-20T00:30:07;14.40;99.90
76567;DHT22;65428;53.194;6.132;2023-08-20T00:32:34;14.40;99.90
76567;DHT22;65428;53.194;6.132;2023-08-20T00:34:59;14.40;99.90
76567;DHT22;65428;53.194;6.132;2023-08-20T00:37:25;14.40;99.90
76567;DHT22;65428;53.194;6.132;2023-08-20T00:39:51;14.40;99.90
76567;DHT22;65428;53.194;6.132;2023-08-20T00:42:18;14.60;99.90
76567;DHT22;65428;53.194;6.132;2023-08-20T00:44:43;14.30;99.90
76567;DHT22;65428;53.194;6.132;2023-08-20T00:47:13;14.40;99.90
76567;DHT22;65428;53.194;6.132;2023-08-20T00:49:39;14.30;99.90
76567;DHT22;65428;53.194;6.132;2023-08-20T00:52:07;14.30;99.90
76567;DHT22;65428;53.194;6.132;2023-08-20T00:54:33;14.60;99.90
76567;DHT22;65428;53.194;6.132;2023-08-20T00:57:00;14.30;99.90
76567;DHT22;65428;53.194;6.132;2023-08-20T00:59:26;14.40;99.90
76567;DHT22;65428;53.194;6.132;2023-08-20T01:01:53;14.20;99.90
76567;DHT22;65428;53.194;6.132;2023-08-20T01:04:19;14.10;99.90
76567;DHT22;65428;53.194;6.132;2023-08-20T01:12:22;14.30;99.90
76567;DHT22;65428;53.194;6.132;2023-08-20T01:14:49;14.10;99.90
76567;DHT22;65428;53.194;6.132;2023-08-20T01:17:15;14.30;99.90
76567;DHT22;65428;53.194;6.132;2023-08-20T01:19:41;14.10;99.90
76567;DHT22;65428;53.194;6.132;2023-08-20T01:22:36;14.30;99.90
76567;DHT22;65428;53.194;6.132;2023-08-20T01:28:03;14.10;99.90
76567;DHT22;65428;53.194;6.132;2023-08-20T01:30:33;14.40;99.90
76567;DHT22;65428;53.194;6.132;2023-08-20T01:32:59;14.10;99.90
76567;DHT22;65428;53.194;6.132;2023-08-20T01:35:26;14.10;99.90
76567;DHT22;65428;53.194;6.132;2023-08-20T01:37:52;14.50;99.90
76567;DHT22;65428;53.194;6.132;2023-08-20T01:40:18;14.10;99.90
76567;DHT22;65428;53.194;6.132;2023-08-20T01:42:43;14.10;99.90
76567;DHT22;65428;53.194;6.132;2023-08-20T01:45:09;14.00;99.90
76567;DHT22;65428;53.194;6.132;2023-08-20T01:47:36;14.40;99.90
76567;DHT22;65428;53.194;6.132;2023-08-20T01:50:02;13.90;99.90
76567;DHT22;65428;53.194;6.132;2023-08-20T01:52:28;14.10;99.90
76567;DHT22;65428;53.194;6.132;2023-08-20T01:54:54;14.40;99.90
76567;DHT22;65428;53.194;6.132;2023-08-20T01:57:20;13.90;99.90
76567;DHT22;65428;53.194;6.132;2023-08-20T01:59:47;14.00;99.90
76567;DHT22;65428;53.194;6.132;2023-08-20T02:02:13;14.30;99.90
76567;DHT22;65428;53.194;6.132;2023-08-20T02:04:38;14.00;99.90
76567;DHT22;65428;53.194;6.132;2023-08-20T02:07:04;13.70;99.90
76567;DHT22;65428;53.194;6.132;2023-08-20T02:09:30;13.90;99.90
76567;DHT22;65428;53.194;6.132;2023-08-20T02:11:55;14.30;99.90
76567;DHT22;65428;53.194;6.132;2023-08-20T02:14:21;14.00;99.90
76567;DHT22;65428;53.194;6.132;2023-08-20T02:16:47;14.10;99.90
76567;DHT22;65428;53.194;6.132;2023-08-20T02:19:13;14.10;99.90
76567;DHT22;65428;53.194;6.132;2023-08-20T02:21:40;14.00;99.90
76567;DHT22;65428;53.194;6.132;2023-08-20T02:24:06;14.00;99.90
76567;DHT22;65428;53.194;6.132;2023-08-20T02:26:31;14.00;99.90
76567;DHT22;65428;53.194;6.132;2023-08-20T02:28:57;14.00;99.90
76567;DHT22;65428;53.194;6.132;2023-08-20T02:31:23;14.00;99.90
76567;DHT22;65428;53.194;6.132;2023-08-20T02:33:49;14.00;99.90
76567;DHT22;65428;53.194;6.132;2023-08-20T02:36:15;14.00;99.90
76567;DHT22;65428;53.194;6.132;2023-08-20T02:38:40;14.00;99.90
76567;DHT22;65428;53.194;6.132;2023-08-20T02:41:06;14.00;99.90
76567;DHT22;65428;53.194;6.132;2023-08-20T02:43:32;14.00;99.90
76567;DHT22;65428;53.194;6.132;2023-08-20T02:45:58;13.90;99.90
76567;DHT22;65428;53.194;6.132;2023-08-20T02:48:23;13.90;99.90
76567;DHT22;65428;53.194;6.132;2023-08-20T02:50:55;14.00;99.90
76567;DHT22;65428;53.194;6.132;2023-08-20T02:53:22;14.00;99.90
76567;DHT22;65428;53.194;6.132;2023-08-20T02:55:47;13.90;99.90
76567;DHT22;65428;53.194;6.132;2023-08-20T02:58:13;13.90;99.90
76567;DHT22;65428;53.194;6.132;2023-08-20T03:00:39;14.00;99.90
76567;DHT22;65428;53.194;6.132;2023-08-20T03:03:05;13.90;99.90
76567;DHT22;65428;53.194;6.132;2023-08-20T03:05:33;14.00;99.90
76567;DHT22;65428;53.194;6.132;2023-08-20T03:07:59;13.90;99.90
76567;DHT22;65428;53.194;6.132;2023-08-20T03:10:26;14.20;99.90
76567;DHT22;65428;53.194;6.132;2023-08-20T03:12:52;13.90;99.90
76567;DHT22;65428;53.194;6.132;2023-08-20T03:15:18;13.90;99.90
76567;DHT22;65428;53.194;6.132;2023-08-20T03:17:43;13.90;99.90
76567;DHT22;65428;53.194;6.132;2023-08-20T03:20:10;13.90;99.90
76567;DHT22;65428;53.194;6.132;2023-08-20T03:22:37;13.90;99.90
76567;DHT22;65428;53.194;6.132;2023-08-20T03:25:03;13.90;99.90
76567;DHT22;65428;53.194;6.132;2023-08-20T03:27:29;13.90;99.90
76567;DHT22;65428;53.194;6.132;2023-08-20T03:29:55;13.90;99.90
76567;DHT22;65428;53.194;6.132;2023-08-20T03:32:20;14.30;99.90
76567;DHT22;65428;53.194;6.132;2023-08-20T03:34:46;14.10;99.90
76567;DHT22;65428;53.194;6.132;2023-08-20T03:37:12;13.90;99.90
76567;DHT22;65428;53.194;6.132;2023-08-20T03:39:38;13.90;99.90
76567;DHT22;65428;53.194;6.132;2023-08-20T03:42:04;13.90;99.90
76567;DHT22;65428;53.194;6.132;2023-08-20T03:44:31;13.80;99.90
76567;DHT22;65428;53.194;6.132;2023-08-20T03:46:57;13.80;99.90
76567;DHT22;65428;53.194;6.132;2023-08-20T03:49:23;13.80;99.90
76567;DHT22;65428;53.194;6.132;2023-08-20T03:51:48;13.90;99.90
76567;DHT22;65428;53.194;6.132;2023-08-20T03:54:14;13.90;99.90
76567;DHT22;65428;53.194;6.132;2023-08-20T03:56:40;13.90;99.90
76567;DHT22;65428;53.194;6.132;2023-08-20T03:59:06;14.00;99.90
76567;DHT22;65428;53.194;6.132;2023-08-20T04:01:32;13.80;99.90
76567;DHT22;65428;53.194;6.132;2023-08-20T04:03:57;13.80;99.90
76567;DHT22;65428;53.194;6.132;2023-08-20T04:06:23;13.80;99.90
76567;DHT22;65428;53.194;6.132;2023-08-20T04:08:49;13.70;99.90
76567;DHT22;65428;53.194;6.132;2023-08-20T04:11:15;13.70;99.90
76567;DHT22;65428;53.194;6.132;2023-08-20T04:13:41;13.70;99.90
76567;DHT22;65428;53.194;6.132;2023-08-20T04:16:09;13.70;99.90
76567;DHT22;65428;53.194;6.132;2023-08-20T04:18:35;13.70;99.90
76567;DHT22;65428;53.194;6.132;2023-08-20T04:21:01;13.70;99.90
76567;DHT22;65428;53.194;6.132;2023-08-20T04:23:26;13.70;99.90
76567;DHT22;65428;53.194;6.132;2023-08-20T04:25:52;13.90;99.90
76567;DHT22;65428;53.194;6.132;2023-08-20T04:28:18;13.70;99.90
76567;DHT22;65428;53.194;6.132;2023-08-20T04:30:47;13.70;99.90
76567;DHT22;65428;53.194;6.132;2023-08-20T04:33:15;13.70;99.90
76567;DHT22;65428;53.194;6.132;2023-08-20T04:35:41;13.60;99.90
76567;DHT22;65428;53.194;6.132;2023-08-20T04:38:07;13.70;99.90
76567;DHT22;65428;53.194;6.132;2023-08-20T04:40:33;14.00;99.90
76567;DHT22;65428;53.194;6.132;2023-08-20T04:42:59;13.70;99.90
76567;DHT22;65428;53.194;6.132;2023-08-20T04:45:24;14.30;99.90
76567;DHT22;65428;53.194;6.132;2023-08-20T04:47:50;13.90;99.90
76567;DHT22;65428;53.194;6.132;2023-08-20T04:50:16;13.80;99.90
76567;DHT22;65428;53.194;6.132;2023-08-20T04:52:50;13.70;99.90
76567;DHT22;65428;53.194;6.132;2023-08-20T05:06:37;13.90;99.90
76567;DHT22;65428;53.194;6.132;2023-08-20T05:09:03;14.00;99.90
76567;DHT22;65428;53.194;6.132;2023-08-20T05:11:29;14.10;99.90
76567;DHT22;65428;53.194;6.132;2023-08-20T05:13:56;14.30;99.90
76567;DHT22;65428;53.194;6.132;2023-08-20T05:16:22;14.50;99.90
76567;DHT22;65428;53.194;6.132;2023-08-20T05:18:48;14.40;99.90
76567;DHT22;65428;53.194;6.132;2023-08-20T05:21:14;14.60;99.90
76567;DHT22;65428;53.194;6.132;2023-08-20T05:23:40;14.70;99.90
76567;DHT22;65428;53.194;6.132;2023-08-20T05:26:06;14.80;99.90
76567;DHT22;65428;53.194;6.132;2023-08-20T05:28:33;14.90;99.90
76567;DHT22;65428;53.194;6.132;2023-08-20T05:30:59;15.10;99.90
76567;DHT22;65428;53.194;6.132;2023-08-20T05:33:24;15.20;99.90
76567;DHT22;65428;53.194;6.132;2023-08-20T05:35:50;15.30;99.90
76567;DHT22;65428;53.194;6.132;2023-08-20T05:38:17;15.20;99.90
76567;DHT22;65428;53.194;6.132;2023-08-20T05:40:43;15.60;99.90
76567;DHT22;65428;53.194;6.132;2023-08-20T05:43:09;15.80;99.90
76567;DHT22;65428;53.194;6.132;2023-08-20T05:45:35;15.90;99.90
76567;DHT22;65428;53.194;6.132;2023-08-20T05:48:01;16.10;99.90
76567;DHT22;65428;53.194;6.132;2023-08-20T05:50:26;16.20;99.90
76567;DHT22;65428;53.194;6.132;2023-08-20T05:52:52;16.40;99.90
76567;DHT22;65428;53.194;6.132;2023-08-20T05:55:18;16.80;99.90
76567;DHT22;65428;53.194;6.132;2023-08-20T05:57:45;16.90;99.90
76567;DHT22;65428;53.194;6.132;2023-08-20T06:00:11;17.00;99.90
76567;DHT22;65428;53.194;6.132;2023-08-20T06:02:37;17.00;99.90
76567;DHT22;65428;53.194;6.132;2023-08-20T06:05:04;17.10;99.90
76567;DHT22;65428;53.194;6.132;2023-08-20T06:07:31;17.30;99.90
76567;DHT22;65428;53.194;6.132;2023-08-20T06:09:56;17.50;99.90
76567;DHT22;65428;53.194;6.132;2023-08-20T06:12:23;18.30;99.90
76567;DHT22;65428;53.194;6.132;2023-08-20T06:14:49;17.70;99.90
76567;DHT22;65428;53.194;6.132;2023-08-20T06:17:14;17.80;99.90
76567;DHT22;65428;53.194;6.132;2023-08-20T06:19:40;17.80;99.90
76567;DHT22;65428;53.194;6.132;2023-08-20T06:22:06;18.10;99.90
76567;DHT22;65428;53.194;6.132;2023-08-20T06:24:32;18.70;99.90
76567;DHT22;65428;53.194;6.132;2023-08-20T06:26:57;18.40;99.90
76567;DHT22;65428;53.194;6.132;2023-08-20T06:29:23;18.50;99.90
76567;DHT22;65428;53.194;6.132;2023-08-20T06:31:49;18.60;99.90
76567;DHT22;65428;53.194;6.132;2023-08-20T06:34:16;18.70;99.90
76567;DHT22;65428;53.194;6.132;2023-08-20T06:36:42;18.90;99.90
76567;DHT22;65428;53.194;6.132;2023-08-20T06:39:07;19.00;99.90
76567;DHT22;65428;53.194;6.132;2023-08-20T06:41:34;19.40;99.90
76567;DHT22;65428;53.194;6.132;2023-08-20T06:44:00;19.20;99.90
76567;DHT22;65428;53.194;6.132;2023-08-20T06:46:25;19.30;99.90
76567;DHT22;65428;53.194;6.132;2023-08-20T06:48:51;19.40;99.90
76567;DHT22;65428;53.194;6.132;2023-08-20T06:51:20;19.90;99.90
76567;DHT22;65428;53.194;6.132;2023-08-20T06:53:47;20.20;99.90
76567;DHT22;65428;53.194;6.132;2023-08-20T06:56:12;19.70;99.90
76567;DHT22;65428;53.194;6.132;2023-08-20T06:58:40;20.10;99.90
76567;DHT22;65428;53.194;6.132;2023-08-20T07:01:06;19.50;99.90
76567;DHT22;65428;53.194;6.132;2023-08-20T07:03:37;20.00;99.90
76567;DHT22;65428;53.194;6.132;2023-08-20T07:06:03;20.10;99.90
76567;DHT22;65428;53.194;6.132;2023-08-20T07:08:29;20.10;99.90
76567;DHT22;65428;53.194;6.132;2023-08-20T07:10:55;20.40;99.90
76567;DHT22;65428;53.194;6.132;2023-08-20T07:13:21;20.30;99.90
76567;DHT22;65428;53.194;6.132;2023-08-20T07:15:47;20.30;99.90
76567;DHT22;65428;53.194;6.132;2023-08-20T07:18:13;20.40;99.90
76567;DHT22;65428;53.194;6.132;2023-08-20T07:20:43;20.50;99.90
76567;DHT22;65428;53.194;6.132;2023-08-20T07:23:10;20.50;99.90
76567;DHT22;65428;53.194;6.132;2023-08-20T07:25:37;20.40;99.90
76567;DHT22;65428;53.194;6.132;2023-08-20T07:28:06;20.70;99.90
76567;DHT22;65428;53.194;6.132;2023-08-20T07:30:32;20.70;99.90
76567;DHT22;65428;53.194;6.132;2023-08-20T07:32:58;20.90;99.90
76567;DHT22;65428;53.194;6.132;2023-08-20T07:35:24;21.00;99.90
76567;DHT22;65428;53.194;6.132;2023-08-20T07:37:50;21.40;99.90
76567;DHT22;65428;53.194;6.132;2023-08-20T07:40:16;21.20;99.90
76567;DHT22;65428;53.194;6.132;2023-08-20T07:42:42;21.20;99.90
76567;DHT22;65428;53.194;6.132;2023-08-20T07:45:08;21.30;99.90
76567;DHT22;65428;53.194;6.132;2023-08-20T07:47:37;21.30;99.90
76567;DHT22;65428;53.194;6.132;2023-08-20T07:50:04;21.40;99.90
76567;DHT22;65428;53.194;6.132;2023-08-20T07:52:31;21.50;99.90
76567;DHT22;65428;53.194;6.132;2023-08-20T07:54:56;21.50;99.90
76567;DHT22;65428;53.194;6.132;2023-08-20T07:57:22;21.70;99.90
76567;DHT22;65428;53.194;6.132;2023-08-20T07:59:49;21.70;99.90
76567;DHT22;65428;53.194;6.132;2023-08-20T08:02:15;22.00;99.90
76567;DHT22;65428;53.194;6.132;2023-08-20T08:04:42;21.80;99.90
76567;DHT22;65428;53.194;6.132;2023-08-20T08:07:08;21.90;99.90
76567;DHT22;65428;53.194;6.132;2023-08-20T08:09:34;22.30;99.90
76567;DHT22;65428;53.194;6.132;2023-08-20T08:12:00;22.20;99.90
76567;DHT22;65428;53.194;6.132;2023-08-20T08:14:26;22.00;99.90
76567;DHT22;65428;53.194;6.132;2023-08-20T08:16:52;22.40;99.90
76567;DHT22;65428;53.194;6.132;2023-08-20T08:19:18;22.30;99.90
76567;DHT22;65428;53.194;6.132;2023-08-20T08:21:45;22.20;99.90
76567;DHT22;65428;53.194;6.132;2023-08-20T08:24:12;22.50;99.90
76567;DHT22;65428;53.194;6.132;2023-08-20T08:26:41;23.10;99.90
76567;DHT22;65428;53.194;6.132;2023-08-20T08:29:08;22.30;99.90
76567;DHT22;65428;53.194;6.132;2023-08-20T08:31:35;22.50;99.90
76567;DHT22;65428;53.194;6.132;2023-08-20T08:34:02;22.70;99.90
76567;DHT22;65428;53.194;6.132;2023-08-20T08:36:29;22.90;99.90
76567;DHT22;65428;53.194;6.132;2023-08-20T08:38:54;23.20;99.90
76567;DHT22;65428;53.194;6.132;2023-08-20T08:41:25;23.50;99.90
76567;DHT22;65428;53.194;6.132;2023-08-20T08:43:51;23.60;99.90
76567;DHT22;65428;53.194;6.132;2023-08-20T08:46:17;23.30;99.90
76567;DHT22;65428;53.194;6.132;2023-08-20T08:48:44;23.10;99.90
76567;DHT22;65428;53.194;6.132;2023-08-20T08:51:12;23.00;99.90
76567;DHT22;65428;53.194;6.132;2023-08-20T08:53:38;23.20;99.90
76567;DHT22;65428;53.194;6.132;2023-08-20T08:56:04;23.30;99.90
76567;DHT22;65428;53.194;6.132;2023-08-20T08:58:33;23.50;99.90
76567;DHT22;65428;53.194;6.132;2023-08-20T09:00:59;23.70;99.90
76567;DHT22;65428;53.194;6.132;2023-08-20T09:03:25;24.10;99.90
76567;DHT22;65428;53.194;6.132;2023-08-20T09:06:01;24.00;99.90
76567;DHT22;65428;53.194;6.132;2023-08-20T09:08:32;24.40;99.90
76567;DHT22;65428;53.194;6.132;2023-08-20T09:11:01;24.40;99.90
76567;DHT22;65428;53.194;6.132;2023-08-20T09:13:37;24.50;99.90
76567;DHT22;65428;53.194;6.132;2023-08-20T09:16:07;24.70;99.90
76567;DHT22;65428;53.194;6.132;2023-08-20T09:18:38;24.90;99.90
76567;DHT22;65428;53.194;6.132;2023-08-20T09:21:07;25.00;99.90
76567;DHT22;65428;53.194;6.132;2023-08-20T09:23:37;25.00;99.90
76567;DHT22;65428;53.194;6.132;2023-08-20T09:26:04;24.60;99.90
76567;DHT22;65428;53.194;6.132;2023-08-20T09:28:41;25.20;99.90
76567;DHT22;65428;53.194;6.132;2023-08-20T09:31:07;25.10;99.90
76567;DHT22;65428;53.194;6.132;2023-08-20T09:33:33;24.60;99.90
76567;DHT22;65428;53.194;6.132;2023-08-20T09:35:58;24.70;99.90
76567;DHT22;65428;53.194;6.132;2023-08-20T09:38:24;24.70;99.90
76567;DHT22;65428;53.194;6.132;2023-08-20T09:40:52;24.30;99.90
76567;DHT22;65428;53.194;6.132;2023-08-20T09:43:18;24.00;99.90
76567;DHT22;65428;53.194;6.132;2023-08-20T09:45:46;24.00;99.90
76567;DHT22;65428;53.194;6.132;2023-08-20T09:48:16;23.90;99.90
76567;DHT22;65428;53.194;6.132;2023-08-20T09:50:44;24.30;99.90
76567;DHT22;65428;53.194;6.132;2023-08-20T09:53:58;24.40;99.90
76567;DHT22;65428;53.194;6.132;2023-08-20T09:56:21;24.50;99.90
76567;DHT22;65428;53.194;6.132;2023-08-20T09:58:48;24.70;99.90
76567;DHT22;65428;53.194;6.132;2023-08-20T10:01:15;24.80;99.90
76567;DHT22;65428;53.194;6.132;2023-08-20T10:03:42;25.20;98.30
76567;DHT22;65428;53.194;6.132;2023-08-20T10:06:08;25.50;95.00
76567;DHT22;65428;53.194;6.132;2023-08-20T10:08:35;25.80;80.90
76567;DHT22;65428;53.194;6.132;2023-08-20T10:11:02;26.00;90.10
76567;DHT22;65428;53.194;6.132;2023-08-20T10:13:31;26.20;92.70
76567;DHT22;65428;53.194;6.132;2023-08-20T10:15:56;26.00;82.20
76567;DHT22;65428;53.194;6.132;2023-08-20T10:18:22;26.10;83.70
76567;DHT22;65428;53.194;6.132;2023-08-20T10:20:51;26.30;72.30
76567;DHT22;65428;53.194;6.132;2023-08-20T10:23:21;26.20;73.90
76567;DHT22;65428;53.194;6.132;2023-08-20T10:25:52;26.50;81.70
76567;DHT22;65428;53.194;6.132;2023-08-20T10:28:27;27.00;72.00
76567;DHT22;65428;53.194;6.132;2023-08-20T10:31:10;26.90;67.30
76567;DHT22;65428;53.194;6.132;2023-08-20T10:33:47;26.60;71.60
76567;DHT22;65428;53.194;6.132;2023-08-20T10:36:18;26.60;69.30
76567;DHT22;65428;53.194;6.132;2023-08-20T10:38:49;26.90;66.10
76567;DHT22;65428;53.194;6.132;2023-08-20T10:41:15;27.30;63.90
76567;DHT22;65428;53.194;6.132;2023-08-20T10:43:48;27.60;63.70
76567;DHT22;65428;53.194;6.132;2023-08-20T10:46:21;27.90;66.40
76567;DHT22;65428;53.194;6.132;2023-08-20T10:48:52;28.30;62.80
76567;DHT22;65428;53.194;6.132;2023-08-20T10:51:19;28.60;58.20
76567;DHT22;65428;53.194;6.132;2023-08-20T10:56:59;29.40;57.30
76567;DHT22;65428;53.194;6.132;2023-08-20T10:59:29;29.40;54.90
76567;DHT22;65428;53.194;6.132;2023-08-20T11:01:57;29.30;55.50
76567;DHT22;65428;53.194;6.132;2023-08-20T11:04:32;29.40;56.00
76567;DHT22;65428;53.194;6.132;2023-08-20T11:06:58;29.50;55.80
76567;DHT22;65428;53.194;6.132;2023-08-20T11:09:37;29.80;54.60
76567;DHT22;65428;53.194;6.132;2023-08-20T11:12:05;30.00;52.80
76567;DHT22;65428;53.194;6.132;2023-08-20T11:14:31;30.20;54.30
76567;DHT22;65428;53.194;6.132;2023-08-20T11:16:56;30.30;52.40
76567;DHT22;65428;53.194;6.132;2023-08-20T11:19:23;30.40;51.40
76567;DHT22;65428;53.194;6.132;2023-08-20T11:21:49;30.50;49.10
76567;DHT22;65428;53.194;6.132;2023-08-20T11:24:16;30.70;49.60
76567;DHT22;65428;53.194;6.132;2023-08-20T11:26:43;30.90;48.10
76567;DHT22;65428;53.194;6.132;2023-08-20T11:29:10;31.20;49.40
76567;DHT22;65428;53.194;6.132;2023-08-20T11:31:37;31.20;47.20
76567;DHT22;65428;53.194;6.132;2023-08-20T11:34:04;31.10;46.70
76567;DHT22;65428;53.194;6.132;2023-08-20T11:36:30;31.10;50.60
76567;DHT22;65428;53.194;6.132;2023-08-20T11:38:56;31.30;50.20
76567;DHT22;65428;53.194;6.132;2023-08-20T11:41:23;31.60;48.40
76567;DHT22;65428;53.194;6.132;2023-08-20T11:43:50;31.40;49.50
76567;DHT22;65428;53.194;6.132;2023-08-20T11:46:18;31.00;47.50
76567;DHT22;65428;53.194;6.132;2023-08-20T11:51:26;30.70;50.50
76567;DHT22;65428;53.194;6.132;2023-08-20T11:53:52;30.80;51.00
76567;DHT22;65428;53.194;6.132;2023-08-20T11:56:18;30.80;48.60
76567;DHT22;65428;53.194;6.132;2023-08-20T11:58:50;31.10;49.50
76567;DHT22;65428;53.194;6.132;2023-08-20T12:01:31;31.40;47.90
76567;DHT22;65428;53.194;6.132;2023-08-20T12:04:02;31.70;48.80
76567;DHT22;65428;53.194;6.132;2023-08-20T12:06:29;31.50;46.70
76567;DHT22;65428;53.194;6.132;2023-08-20T12:08:57;31.00;47.50
76567;DHT22;65428;53.194;6.132;2023-08-20T12:11:27;30.80;50.00
76567;DHT22;65428;53.194;6.132;2023-08-20T12:13:53;31.00;52.10
76567;DHT22;65428;53.194;6.132;2023-08-20T12:16:21;31.30;48.80
76567;DHT22;65428;53.194;6.132;2023-08-20T12:18:46;31.60;48.20
76567;DHT22;65428;53.194;6.132;2023-08-20T12:21:12;32.00;50.00
76567;DHT22;65428;53.194;6.132;2023-08-20T12:23:38;31.90;46.10
76567;DHT22;65428;53.194;6.132;2023-08-20T12:26:03;31.50;47.00
76567;DHT22;65428;53.194;6.132;2023-08-20T12:28:35;31.10;46.50
76567;DHT22;65428;53.194;6.132;2023-08-20T12:31:36;30.90;50.70
76567;DHT22;65428;53.194;6.132;2023-08-20T12:34:02;31.30;51.50
76567;DHT22;65428;53.194;6.132;2023-08-20T12:36:28;31.70;48.50
76567;DHT22;65428;53.194;6.132;2023-08-20T12:38:54;31.90;47.20
76567;DHT22;65428;53.194;6.132;2023-08-20T12:41:20;31.60;44.70
76567;DHT22;65428;53.194;6.132;2023-08-20T12:43:46;31.20;49.60
76567;DHT22;65428;53.194;6.132;2023-08-20T12:46:12;31.20;47.80
76567;DHT22;65428;53.194;6.132;2023-08-20T12:48:39;31.30;48.30
76567;DHT22;65428;53.194;6.132;2023-08-20T12:51:05;31.30;46.80
76567;DHT22;65428;53.194;6.132;2023-08-20T12:53:31;31.60;49.90
76567;DHT22;65428;53.194;6.132;2023-08-20T12:55:57;32.10;47.70
76567;DHT22;65428;53.194;6.132;2023-08-20T12:58:23;32.60;47.60
76567;DHT22;65428;53.194;6.132;2023-08-20T13:00:50;33.20;46.20
76567;DHT22;65428;53.194;6.132;2023-08-20T13:03:17;33.50;45.90
76567;DHT22;65428;53.194;6.132;2023-08-20T13:05:43;33.30;45.30
76567;DHT22;65428;53.194;6.132;2023-08-20T13:08:09;33.00;44.30
76567;DHT22;65428;53.194;6.132;2023-08-20T13:10:39;32.80;45.50
76567;DHT22;65428;53.194;6.132;2023-08-20T13:13:09;32.80;45.00
76567;DHT22;65428;53.194;6.132;2023-08-20T13:15:35;33.10;46.60
76567;DHT22;65428;53.194;6.132;2023-08-20T13:18:01;33.50;44.30
76567;DHT22;65428;53.194;6.132;2023-08-20T13:20:31;33.30;44.70
76567;DHT22;65428;53.194;6.132;2023-08-20T13:22:59;33.30;44.20
76567;DHT22;65428;53.194;6.132;2023-08-20T13:25:24;33.40;41.80
76567;DHT22;65428;53.194;6.132;2023-08-20T13:27:50;33.70;45.10
76567;DHT22;65428;53.194;6.132;2023-08-20T13:30:16;33.70;42.70
76567;DHT22;65428;53.194;6.132;2023-08-20T13:32:42;33.80;44.30
76567;DHT22;65428;53.194;6.132;2023-08-20T13:35:07;34.10;45.50
76567;DHT22;65428;53.194;6.132;2023-08-20T13:37:34;34.40;42.60
76567;DHT22;65428;53.194;6.132;2023-08-20T13:40:00;34.70;42.10
76567;DHT22;65428;53.194;6.132;2023-08-20T13:42:26;34.40;40.50
76567;DHT22;65428;53.194;6.132;2023-08-20T13:44:52;33.40;42.50
76567;DHT22;65428;53.194;6.132;2023-08-20T13:47:18;32.60;42.50
76567;DHT22;65428;53.194;6.132;2023-08-20T13:49:43;31.80;43.50
76567;DHT22;65428;53.194;6.132;2023-08-20T13:52:09;31.40;47.00
76567;DHT22;65428;53.194;6.132;2023-08-20T13:54:39;31.50;48.30
76567;DHT22;65428;53.194;6.132;2023-08-20T13:57:07;32.00;48.70
76567;DHT22;65428;53.194;6.132;2023-08-20T13:59:39;32.40;45.30
76567;DHT22;65428;53.194;6.132;2023-08-20T14:02:05;32.30;45.10
76567;DHT22;65428;53.194;6.132;2023-08-20T14:04:31;32.30;45.70
76567;DHT22;65428;53.194;6.132;2023-08-20T14:06:56;32.00;43.90
76567;DHT22;65428;53.194;6.132;2023-08-20T14:09:22;31.50;45.00
76567;DHT22;65428;53.194;6.132;2023-08-20T14:11:48;31.30;48.90
76567;DHT22;65428;53.194;6.132;2023-08-20T14:14:13;31.30;47.60
76567;DHT22;65428;53.194;6.132;2023-08-20T14:16:39;31.00;47.80
76567;DHT22;65428;53.194;6.132;2023-08-20T14:19:05;30.70;45.60
76567;DHT22;65428;53.194;6.132;2023-08-20T14:21:31;30.90;47.70
76567;DHT22;65428;53.194;6.132;2023-08-20T14:23:57;31.50;46.70
76567;DHT22;65428;53.194;6.132;2023-08-20T14:26:22;31.80;45.40
76567;DHT22;65428;53.194;6.132;2023-08-20T14:28:51;31.00;45.60
76567;DHT22;65428;53.194;6.132;2023-08-20T14:31:17;30.20;47.90
76567;DHT22;65428;53.194;6.132;2023-08-20T14:33:44;29.50;49.40
76567;DHT22;65428;53.194;6.132;2023-08-20T14:36:10;29.00;52.20
76567;DHT22;65428;53.194;6.132;2023-08-20T14:38:36;28.70;51.60
76567;DHT22;65428;53.194;6.132;2023-08-20T14:41:02;28.40;52.20
76567;DHT22;65428;53.194;6.132;2023-08-20T14:43:29;28.10;54.40
76567;DHT22;65428;53.194;6.132;2023-08-20T14:45:55;27.90;54.30
76567;DHT22;65428;53.194;6.132;2023-08-20T14:48:21;27.80;57.40
76567;DHT22;65428;53.194;6.132;2023-08-20T14:50:48;27.70;57.30
76567;DHT22;65428;53.194;6.132;2023-08-20T14:53:14;27.50;55.80
76567;DHT22;65428;53.194;6.132;2023-08-20T14:55:39;27.20;56.60
76567;DHT22;65428;53.194;6.132;2023-08-20T14:58:05;27.10;57.50
76567;DHT22;65428;53.194;6.132;2023-08-20T15:00:32;27.00;61.30
76567;DHT22;65428;53.194;6.132;2023-08-20T15:02:58;26.80;58.20
76567;DHT22;65428;53.194;6.132;2023-08-20T15:05:23;26.60;60.00
76567;DHT22;65428;53.194;6.132;2023-08-20T15:07:49;26.40;61.30
76567;DHT22;65428;53.194;6.132;2023-08-20T15:10:15;26.20;58.90
76567;DHT22;65428;53.194;6.132;2023-08-20T15:12:41;26.00;60.90
76567;DHT22;65428;53.194;6.132;2023-08-20T15:15:07;25.80;61.70
76567;DHT22;65428;53.194;6.132;2023-08-20T15:17:34;25.60;65.30
76567;DHT22;65428;53.194;6.132;2023-08-20T15:20:01;25.60;69.80
76567;DHT22;65428;53.194;6.132;2023-08-20T15:22:26;25.60;77.50
76567;DHT22;65428;53.194;6.132;2023-08-20T15:24:53;25.60;64.50
76567;DHT22;65428;53.194;6.132;2023-08-20T15:27:19;25.40;66.20
76567;DHT22;65428;53.194;6.132;2023-08-20T15:29:44;25.20;67.60
76567;DHT22;65428;53.194;6.132;2023-08-20T15:32:11;25.10;71.70
76567;DHT22;65428;53.194;6.132;2023-08-20T15:34:37;25.10;75.80
76567;DHT22;65428;53.194;6.132;2023-08-20T15:37:02;25.10;79.60
76567;DHT22;65428;53.194;6.132;2023-08-20T15:39:32;25.10;69.70
76567;DHT22;65428;53.194;6.132;2023-08-20T15:41:58;25.00;71.40
76567;DHT22;65428;53.194;6.132;2023-08-20T15:44:24;24.90;70.10
76567;DHT22;65428;53.194;6.132;2023-08-20T15:46:50;24.80;77.60
76567;DHT22;65428;53.194;6.132;2023-08-20T15:49:15;24.80;76.50
76567;DHT22;65428;53.194;6.132;2023-08-20T15:51:43;24.70;71.50
76567;DHT22;65428;53.194;6.132;2023-08-20T15:54:09;24.80;72.80